CheckWX is a tool to help pilots better visualize weather data.  It is not intended as a substitute for an official pre-flight weather briefing.

05:13:29 UTC

KLGC METAR
Lagrange-Callaway Airport
Lagrange, Georgia, USA
Current

18 mins ago

KLGC 240455Z AUTO 13004KT 10SM SCT007 SCT033 17/16 A2995 RMK AO2 T01660164
Observed
Feb-24 @ 04:55 UTC
Wind
  • 130° at 4 KTS
Visibility
10 SM
Flight Rules
VFR
Cloud Levels
  • Scattered at 700' AGL
  • Scattered at 3,300' AGL
Temperature
17°C / 63°F
Dewpoint
16°C / 61°F
Humidity
94%
Altimeter
29.95" Hg
Pressure
1014.22 hPa
Previous

38 mins ago

KLGC 240435Z AUTO 14004KT 10SM SCT007 BKN033 BKN070 17/16 A2997 RMK AO2 T01650162
Observed
Feb-24 @ 04:35 UTC
Wind
  • 140° at 4 KTS
Visibility
10 SM
Flight Rules
VFR
Cloud Levels
  • Scattered at 700' AGL
  • Broken at 3,300' AGL
  • Broken at 7,000' AGL
Temperature
17°C / 63°F
Dewpoint
16°C / 61°F
Humidity
94%
Altimeter
29.97" Hg
Pressure
1014.92 hPa
Previous

58 mins ago

KLGC 240415Z AUTO 13004KT 10SM SCT007 SCT028 OVC070 17/16 A2998 RMK AO2 T01650161
Observed
Feb-24 @ 04:15 UTC
Wind
  • 130° at 4 KTS
Visibility
10 SM
Flight Rules
VFR
Cloud Levels
  • Scattered at 700' AGL
  • Scattered at 2,800' AGL
  • Overcast at 7,000' AGL
Temperature
17°C / 63°F
Dewpoint
16°C / 61°F
Humidity
94%
Altimeter
29.98" Hg
Pressure
1015.22 hPa